createdAt,value
2023-01-25T00:01:11.855Z,0.75
2023-01-25T00:03:39.020Z,0.74
2023-01-25T00:06:06.580Z,0.91
2023-01-25T00:08:33.778Z,1.00
2023-01-25T00:11:00.914Z,0.82
2023-01-25T00:13:28.094Z,0.91
2023-01-25T00:16:05.161Z,0.93
2023-01-25T00:18:32.367Z,0.72
2023-01-25T00:20:59.547Z,0.84
2023-01-25T00:23:26.836Z,0.82
2023-01-25T00:25:59.904Z,0.87
2023-01-25T00:28:27.154Z,0.89
2023-01-25T00:30:54.361Z,0.96
2023-01-25T00:33:46.046Z,0.83
2023-01-25T00:36:40.498Z,0.73
2023-01-25T00:39:13.169Z,0.76
2023-01-25T00:41:41.201Z,0.74
2023-01-25T00:44:08.729Z,0.70
2023-01-25T00:46:36.583Z,0.71
2023-01-25T00:49:06.989Z,0.77
2023-01-25T00:51:34.410Z,0.84
2023-01-25T00:54:01.653Z,0.83
2023-01-25T00:56:29.009Z,0.77
2023-01-25T00:58:56.242Z,0.79
2023-01-25T01:01:23.603Z,0.75
2023-01-25T01:03:52.679Z,0.54
2023-01-25T01:06:19.987Z,0.70
2023-01-25T01:08:47.230Z,0.71
2023-01-25T01:11:14.456Z,0.80
2023-01-25T01:13:41.784Z,0.78
2023-01-25T01:16:12.241Z,0.82
2023-01-25T01:18:45.816Z,0.63
2023-01-25T01:21:14.625Z,0.78
2023-01-25T01:23:42.089Z,0.75
2023-01-25T01:26:14.040Z,0.81
2023-01-25T01:28:42.096Z,0.62
2023-01-25T01:31:17.809Z,0.64
2023-01-25T01:34:01.178Z,0.67
2023-01-25T01:36:30.783Z,0.67
2023-01-25T01:38:59.970Z,0.68
2023-01-25T01:41:27.937Z,0.52
2023-01-25T01:43:55.403Z,0.58
2023-01-25T01:46:37.571Z,0.67
2023-01-25T01:49:27.964Z,0.71
2023-01-25T01:52:13.201Z,0.75
2023-01-25T01:55:01.646Z,0.72
2023-01-25T01:57:53.833Z,0.66
2023-01-25T02:00:28.579Z,0.68
2023-01-25T02:02:56.293Z,0.44
2023-01-25T02:05:35.876Z,0.47
2023-01-25T02:08:05.659Z,0.43
2023-01-25T02:10:34.099Z,0.39
2023-01-25T02:13:01.638Z,0.52
2023-01-25T02:15:43.726Z,0.44
2023-01-25T02:18:12.522Z,0.46
2023-01-25T02:20:48.520Z,0.52
2023-01-25T02:23:51.611Z,0.70
2023-01-25T02:26:19.775Z,0.76
2023-01-25T02:29:07.174Z,0.75
2023-01-25T02:31:34.808Z,0.74
2023-01-25T02:34:02.108Z,0.75
2023-01-25T02:36:33.172Z,0.76
2023-01-25T02:39:17.304Z,0.94
2023-01-25T02:41:50.364Z,0.88
2023-01-25T02:44:21.936Z,0.83
2023-01-25T02:46:49.420Z,0.86
2023-01-25T02:49:17.301Z,0.81
2023-01-25T02:51:49.841Z,0.84
2023-01-25T02:54:19.649Z,0.77
2023-01-25T02:56:50.152Z,0.82
2023-01-25T02:59:19.086Z,0.81
2023-01-25T03:01:50.898Z,0.75
2023-01-25T03:04:18.667Z,0.72
2023-01-25T03:06:46.034Z,0.76
2023-01-25T03:09:13.453Z,0.65
2023-01-25T03:11:45.202Z,0.75
2023-01-25T03:14:15.114Z,0.74
2023-01-25T03:16:42.341Z,0.71
2023-01-25T03:19:09.831Z,0.69
2023-01-25T03:21:41.560Z,0.72
2023-01-25T03:24:10.588Z,0.77
2023-01-25T03:27:02.315Z,0.77
2023-01-25T03:29:38.442Z,0.69
2023-01-25T03:32:14.108Z,0.57
2023-01-25T03:34:41.704Z,0.58
2023-01-25T03:37:09.958Z,0.63
2023-01-25T03:39:39.219Z,0.60
2023-01-25T03:42:06.600Z,0.61
2023-01-25T03:44:33.898Z,0.62
2023-01-25T03:47:01.521Z,0.49
2023-01-25T03:49:29.990Z,0.43
2023-01-25T03:51:58.723Z,0.40
2023-01-25T03:54:38.168Z,0.48
2023-01-25T03:57:07.327Z,0.35
2023-01-25T03:59:42.393Z,0.28
2023-01-25T04:02:09.685Z,0.32
2023-01-25T04:04:36.906Z,0.42
2023-01-25T04:07:04.329Z,0.33
2023-01-25T04:09:33.289Z,0.36
2023-01-25T04:12:00.564Z,0.43
2023-01-25T04:14:43.272Z,0.40
2023-01-25T04:17:14.194Z,0.26
2023-01-25T04:19:53.983Z,0.33
2023-01-25T04:22:25.673Z,0.23
2023-01-25T04:24:55.459Z,0.29
2023-01-25T04:27:22.842Z,-0.02
2023-01-25T04:29:57.795Z,0.20
2023-01-25T04:32:26.826Z,0.46
2023-01-25T04:34:54.531Z,0.48
2023-01-25T04:37:24.282Z,0.33
2023-01-25T04:39:55.868Z,0.26
2023-01-25T04:42:23.396Z,0.32
2023-01-25T04:44:54.363Z,0.39
2023-01-25T04:47:21.893Z,0.38
2023-01-25T04:49:49.111Z,0.24
2023-01-25T04:52:19.249Z,0.23
2023-01-25T04:54:46.436Z,0.47
2023-01-25T04:57:13.803Z,0.49
2023-01-25T04:59:46.331Z,0.59
2023-01-25T05:02:14.825Z,0.51
2023-01-25T05:04:42.447Z,0.61
2023-01-25T05:07:09.766Z,0.59
2023-01-25T05:09:37.102Z,0.59
2023-01-25T05:12:11.654Z,0.45
2023-01-25T05:14:51.587Z,0.43
2023-01-25T05:17:18.848Z,0.29
2023-01-25T05:19:46.182Z,0.10
2023-01-25T05:22:20.771Z,-0.01
2023-01-25T05:24:51.502Z,-0.17
2023-01-25T05:27:21.394Z,-0.04
2023-01-25T05:29:55.158Z,0.22
2023-01-25T05:32:50.482Z,0.27
2023-01-25T05:35:18.344Z,0.22
2023-01-25T05:37:46.341Z,0.27
2023-01-25T05:40:21.998Z,0.34
2023-01-25T05:43:00.163Z,0.32
2023-01-25T05:45:30.247Z,0.34
2023-01-25T05:47:59.106Z,0.14
2023-01-25T05:50:26.939Z,0.30
2023-01-25T05:53:04.634Z,0.28
2023-01-25T05:55:31.994Z,0.28
2023-01-25T05:58:04.385Z,0.08
2023-01-25T06:00:32.255Z,0.28
2023-01-25T06:03:02.368Z,0.23
2023-01-25T06:05:31.947Z,0.23
2023-01-25T06:07:59.731Z,0.24
2023-01-25T06:10:33.138Z,0.31
2023-01-25T06:13:00.773Z,0.01
2023-01-25T06:15:28.135Z,0.16
2023-01-25T06:18:02.449Z,0.22
2023-01-25T06:20:56.320Z,0.19
2023-01-25T06:23:29.428Z,0.12
2023-01-25T06:26:03.228Z,0.35
2023-01-25T06:28:32.704Z,0.05
2023-01-25T06:31:18.002Z,-0.10
2023-01-25T06:33:50.820Z,-0.16
2023-01-25T06:36:22.715Z,-0.22
2023-01-25T06:38:52.200Z,-0.22
2023-01-25T06:41:20.313Z,-0.06
2023-01-25T06:43:50.656Z,-0.03
2023-01-25T06:46:18.378Z,-0.07
2023-01-25T06:48:45.850Z,-0.05
2023-01-25T06:51:15.128Z,-0.20
2023-01-25T06:53:44.901Z,-0.11
2023-01-25T06:56:21.919Z,-0.17
2023-01-25T06:58:50.689Z,-0.29
2023-01-25T07:01:21.427Z,-0.34
2023-01-25T07:03:49.949Z,-0.08
2023-01-25T07:06:18.113Z,-0.28
2023-01-25T07:08:45.992Z,-0.02
2023-01-25T07:11:14.723Z,0.09
2023-01-25T07:13:46.081Z,-0.03
2023-01-25T07:16:18.697Z,0.15
2023-01-25T07:18:46.287Z,0.32
2023-01-25T07:21:22.863Z,0.11
2023-01-25T07:23:51.630Z,0.01
2023-01-25T07:26:21.199Z,0.19
2023-01-25T07:28:49.736Z,0.02
2023-01-25T07:31:18.627Z,0.01
2023-01-25T07:33:55.228Z,-0.30
2023-01-25T07:36:23.381Z,-0.04
2023-01-25T07:38:55.114Z,0.10
2023-01-25T07:41:24.718Z,0.23
2023-01-25T07:43:53.324Z,0.39
2023-01-25T07:46:39.956Z,0.37
2023-01-25T07:49:07.266Z,0.24
2023-01-25T07:51:34.506Z,0.27
2023-01-25T07:54:04.846Z,0.21
2023-01-25T07:56:40.836Z,0.44
2023-01-25T07:59:12.565Z,0.16
2023-01-25T08:01:40.254Z,0.12
2023-01-25T08:04:09.211Z,0.16
2023-01-25T08:06:41.142Z,0.25
2023-01-25T08:09:16.184Z,0.40
2023-01-25T08:11:43.682Z,0.50
2023-01-25T08:14:11.504Z,0.54
2023-01-25T08:16:38.925Z,0.40
2023-01-25T08:19:06.249Z,0.42
2023-01-25T08:21:35.988Z,0.56
2023-01-25T08:24:07.160Z,0.36
2023-01-25T08:26:36.315Z,0.39
2023-01-25T08:29:04.994Z,0.43
2023-01-25T08:31:35.525Z,0.61
2023-01-25T08:34:03.752Z,0.62
2023-01-25T08:36:31.117Z,0.67
2023-01-25T08:39:09.080Z,0.63
2023-01-25T08:41:36.907Z,0.74
2023-01-25T08:44:05.175Z,0.94
2023-01-25T08:46:34.238Z,1.05
2023-01-25T08:49:03.059Z,1.05
2023-01-25T08:51:32.210Z,1.04
2023-01-25T08:54:12.881Z,1.15
2023-01-25T08:56:44.332Z,1.23
2023-01-25T08:59:12.981Z,0.81
2023-01-25T09:01:40.678Z,0.69
2023-01-25T09:04:08.026Z,0.94
2023-01-25T09:06:35.309Z,1.10
2023-01-25T09:09:04.309Z,1.07
2023-01-25T09:11:34.434Z,1.05
2023-01-25T09:14:01.684Z,1.00
2023-01-25T09:16:29.451Z,0.95
2023-01-25T09:19:06.443Z,0.80
2023-01-25T09:21:34.948Z,0.90
2023-01-25T09:24:06.885Z,0.95
2023-01-25T09:26:39.324Z,1.17
2023-01-25T09:29:08.342Z,1.10
2023-01-25T09:31:37.055Z,0.84
2023-01-25T09:34:14.958Z,0.89
2023-01-25T09:36:42.342Z,1.20
2023-01-25T09:39:14.534Z,1.26
2023-01-25T09:42:22.501Z,1.24
2023-01-25T09:45:16.982Z,1.15
2023-01-25T09:47:49.994Z,1.05
2023-01-25T09:50:53.030Z,1.31
2023-01-25T09:53:53.344Z,1.29
2023-01-25T09:56:30.632Z,1.35
2023-01-25T09:59:16.626Z,1.53
2023-01-25T10:02:10.652Z,1.58
2023-01-25T10:04:42.518Z,1.55
2023-01-25T10:07:31.064Z,1.52
2023-01-25T10:10:29.752Z,1.41
2023-01-25T10:12:57.166Z,1.46
2023-01-25T10:15:33.118Z,1.57
2023-01-25T10:18:37.422Z,1.63
2023-01-25T10:21:13.156Z,1.61
2023-01-25T10:23:40.372Z,1.67
2023-01-25T10:26:27.975Z,1.67
2023-01-25T10:29:07.705Z,1.70
2023-01-25T10:31:53.287Z,1.78
2023-01-25T10:34:22.057Z,1.78
2023-01-25T10:36:55.477Z,1.69
2023-01-25T10:39:23.593Z,1.57
2023-01-25T10:42:07.397Z,1.48
2023-01-25T10:44:36.134Z,1.63
2023-01-25T10:47:31.883Z,1.50
2023-01-25T10:50:00.360Z,1.58
2023-01-25T10:52:32.744Z,1.40
2023-01-25T10:55:22.381Z,1.67
2023-01-25T10:57:59.644Z,1.83
2023-01-25T11:00:41.437Z,1.84
2023-01-25T11:03:22.002Z,1.49
2023-01-25T11:05:57.507Z,1.34
2023-01-25T11:08:40.292Z,1.09
2023-01-25T11:11:40.590Z,1.00
2023-01-25T11:14:18.529Z,1.00
2023-01-25T11:16:50.607Z,0.85
2023-01-25T11:19:31.254Z,0.85
2023-01-25T11:22:00.855Z,0.98
2023-01-25T11:24:35.279Z,1.15
2023-01-25T11:27:27.314Z,1.26
2023-01-25T11:30:19.317Z,1.51
2023-01-25T11:32:46.746Z,1.52
2023-01-25T11:35:17.175Z,1.72
2023-01-25T11:38:04.939Z,2.03
2023-01-25T11:40:48.579Z,2.00
2023-01-25T11:44:08.248Z,1.99
2023-01-25T11:46:41.180Z,1.66
2023-01-25T11:49:56.152Z,1.54
2023-01-25T11:52:57.682Z,1.60
2023-01-25T11:55:59.357Z,1.74
2023-01-25T11:59:05.956Z,1.74
2023-01-25T12:02:02.035Z,1.43
2023-01-25T12:04:57.769Z,1.36
2023-01-25T12:07:43.736Z,1.13
2023-01-25T12:10:51.541Z,1.43
2023-01-25T12:13:53.453Z,1.84
2023-01-25T12:16:35.633Z,1.96
2023-01-25T12:19:33.923Z,2.00
2023-01-25T12:22:17.422Z,2.15
2023-01-25T12:25:13.182Z,2.27
2023-01-25T12:28:21.278Z,2.11
2023-01-25T12:31:14.734Z,1.83
2023-01-25T12:34:02.511Z,1.81
2023-01-25T12:36:44.004Z,1.82
2023-01-25T12:39:41.147Z,1.92
2023-01-25T12:42:23.127Z,1.80
2023-01-25T12:45:17.217Z,1.57
2023-01-25T12:47:56.326Z,1.08
2023-01-25T12:50:40.465Z,1.33
2023-01-25T12:53:27.880Z,1.20
2023-01-25T12:55:56.201Z,1.51
2023-01-25T12:58:49.560Z,1.47
2023-01-25T13:01:38.028Z,1.53
2023-01-25T13:04:53.512Z,1.47
2023-01-25T13:07:54.475Z,1.63
2023-01-25T13:10:31.448Z,1.62
2023-01-25T13:13:17.120Z,1.46
2023-01-25T13:15:46.650Z,1.44
2023-01-25T13:18:28.935Z,1.67
2023-01-25T13:21:11.412Z,1.70
2023-01-25T13:23:45.946Z,1.89
2023-01-25T13:26:22.346Z,1.84
2023-01-25T13:28:52.613Z,1.92
2023-01-25T13:31:51.039Z,1.89
2023-01-25T13:34:57.324Z,1.77
2023-01-25T13:37:33.799Z,1.83
2023-01-25T13:40:28.938Z,1.69
2023-01-25T13:43:18.730Z,1.41
2023-01-25T13:45:50.752Z,1.50
2023-01-25T13:48:22.765Z,1.51
2023-01-25T13:50:57.724Z,0.98
2023-01-25T13:53:33.314Z,1.10
2023-01-25T13:56:01.663Z,1.23
2023-01-25T13:58:37.405Z,1.42
2023-01-25T14:01:13.595Z,1.26
2023-01-25T14:03:49.130Z,1.43
2023-01-25T14:06:21.005Z,1.39
2023-01-25T14:08:50.403Z,1.44
2023-01-25T14:11:29.074Z,1.47
2023-01-25T14:14:25.138Z,1.48
2023-01-25T14:17:14.166Z,1.22
2023-01-25T14:19:44.650Z,1.18
2023-01-25T14:22:28.070Z,0.93
2023-01-25T14:25:17.524Z,0.98
2023-01-25T14:28:01.339Z,0.58
2023-01-25T14:30:36.724Z,0.57
2023-01-25T14:33:23.412Z,0.76
2023-01-25T14:35:58.594Z,0.90
2023-01-25T14:38:41.216Z,0.95
2023-01-25T14:41:34.399Z,0.94
2023-01-25T14:44:14.781Z,0.69
2023-01-25T14:46:42.475Z,0.61
2023-01-25T14:49:26.404Z,0.37
2023-01-25T14:52:11.862Z,0.37
2023-01-25T14:54:56.133Z,0.56
2023-01-25T14:57:37.356Z,0.66
2023-01-25T15:00:19.210Z,0.64
2023-01-25T15:03:15.840Z,0.55
2023-01-25T15:05:47.111Z,0.67
2023-01-25T15:08:37.548Z,0.70
2023-01-25T15:11:34.769Z,0.68
2023-01-25T15:14:07.508Z,0.76
2023-01-25T15:16:36.227Z,0.93
2023-01-25T15:19:03.646Z,0.78
2023-01-25T15:21:34.402Z,0.68
2023-01-25T15:24:06.928Z,0.54
2023-01-25T15:26:36.155Z,0.54
2023-01-25T15:29:16.871Z,0.58
2023-01-25T15:31:44.373Z,0.70
2023-01-25T15:34:30.352Z,0.50
2023-01-25T15:36:57.652Z,0.56
2023-01-25T15:39:27.660Z,0.54
2023-01-25T15:41:54.856Z,0.44
2023-01-25T15:44:22.103Z,0.48
2023-01-25T15:46:51.582Z,0.54
2023-01-25T15:49:31.726Z,0.66
2023-01-25T15:51:59.012Z,0.82
2023-01-25T15:54:26.450Z,0.84
2023-01-25T15:56:58.464Z,0.88
2023-01-25T15:59:27.153Z,0.67
2023-01-25T16:01:54.393Z,0.77
2023-01-25T16:04:21.658Z,0.59
2023-01-25T16:06:52.502Z,0.45
2023-01-25T16:09:30.933Z,0.63
2023-01-25T16:12:01.605Z,0.77
2023-01-25T16:14:31.520Z,0.68
2023-01-25T16:17:03.106Z,0.53
2023-01-25T16:19:31.481Z,0.36
2023-01-25T16:21:58.746Z,0.54
2023-01-25T16:24:26.015Z,0.67
2023-01-25T16:26:59.010Z,0.77
2023-01-25T16:29:26.570Z,0.97
2023-01-25T16:31:55.023Z,0.97
2023-01-25T16:34:23.195Z,0.94
2023-01-25T16:36:53.297Z,0.95
2023-01-25T16:39:27.986Z,0.79
2023-01-25T16:41:57.352Z,0.63
2023-01-25T16:44:24.630Z,0.65
2023-01-25T16:46:51.855Z,0.70
2023-01-25T16:49:28.116Z,0.83
2023-01-25T16:51:55.986Z,0.78
2023-01-25T16:54:24.860Z,0.35
2023-01-25T16:56:53.855Z,0.48
2023-01-25T16:59:23.329Z,0.30
2023-01-25T17:01:50.868Z,0.23
2023-01-25T17:04:18.711Z,0.39
2023-01-25T17:06:50.431Z,0.19
2023-01-25T17:09:23.992Z,0.24
2023-01-25T17:11:53.658Z,0.13
2023-01-25T17:14:22.282Z,0.12
2023-01-25T17:16:51.896Z,0.21
2023-01-25T17:19:20.123Z,0.35
2023-01-25T17:21:48.348Z,0.32
2023-01-25T17:24:19.189Z,0.40
2023-01-25T17:26:47.029Z,0.54
2023-01-25T17:29:14.461Z,0.45
2023-01-25T17:31:42.462Z,0.33
2023-01-25T17:34:16.314Z,0.31
2023-01-25T17:36:44.760Z,0.17
2023-01-25T17:39:17.643Z,0.21
2023-01-25T17:41:49.742Z,0.36
2023-01-25T17:44:23.230Z,0.27
2023-01-25T17:46:51.478Z,0.18
2023-01-25T17:49:18.995Z,0.35
2023-01-25T17:51:46.772Z,0.50
2023-01-25T17:54:14.328Z,0.57
2023-01-25T17:56:41.652Z,0.27
2023-01-25T17:59:11.445Z,0.36
2023-01-25T18:01:39.612Z,0.22
2023-01-25T18:04:08.501Z,0.29
2023-01-25T18:06:36.272Z,0.36
2023-01-25T18:09:08.272Z,0.48
2023-01-25T18:11:37.997Z,0.49
2023-01-25T18:14:08.985Z,0.47
2023-01-25T18:16:39.752Z,0.35
2023-01-25T18:19:07.656Z,0.32
2023-01-25T18:21:36.460Z,0.35
2023-01-25T18:24:26.077Z,0.30
2023-01-25T18:27:00.576Z,0.17
2023-01-25T18:30:23.085Z,0.11
2023-01-25T18:32:50.252Z,0.09
2023-01-25T18:35:17.521Z,0.12
2023-01-25T18:37:46.577Z,0.19
2023-01-25T18:40:15.633Z,0.10
2023-01-25T18:42:42.932Z,0.13
2023-01-25T18:45:12.814Z,0.13
2023-01-25T18:47:40.216Z,0.08
2023-01-25T18:50:13.983Z,0.05
2023-01-25T18:52:41.268Z,0.09
2023-01-25T18:55:09.194Z,0.19
2023-01-25T18:57:36.626Z,0.09
2023-01-25T19:00:06.253Z,0.23
2023-01-25T19:02:36.118Z,0.16
2023-01-25T19:05:03.542Z,0.10
2023-01-25T19:07:30.819Z,0.15
2023-01-25T19:09:58.164Z,0.19
2023-01-25T19:12:27.696Z,0.28
2023-01-25T19:14:55.038Z,-0.02
2023-01-25T19:17:22.402Z,-0.17
2023-01-25T19:19:49.551Z,-0.04
2023-01-25T19:22:16.830Z,-0.06
2023-01-25T19:24:44.165Z,-0.01
2023-01-25T19:27:11.474Z,0.17
2023-01-25T19:29:38.896Z,0.11
2023-01-25T19:32:06.449Z,0.25
2023-01-25T19:34:33.747Z,0.10
2023-01-25T19:37:01.015Z,0.03
2023-01-25T19:39:28.335Z,0.05
2023-01-25T19:41:55.631Z,0.21
2023-01-25T19:44:24.017Z,0.01
2023-01-25T19:46:51.324Z,-0.13
2023-01-25T19:49:18.879Z,-0.32
2023-01-25T19:51:52.767Z,-0.47
2023-01-25T19:54:21.761Z,-0.36
2023-01-25T19:56:50.052Z,-0.29
2023-01-25T19:59:24.920Z,-0.15
2023-01-25T20:01:52.694Z,0.06
2023-01-25T20:04:23.668Z,-0.13
2023-01-25T20:06:52.157Z,-0.11
2023-01-25T20:09:20.500Z,-0.45
2023-01-25T20:11:47.804Z,-0.58
2023-01-25T20:14:15.853Z,-0.47
2023-01-25T20:16:43.467Z,-0.36
2023-01-25T20:19:12.526Z,-0.25
2023-01-25T20:21:40.376Z,-0.52
2023-01-25T20:24:10.313Z,-0.54
2023-01-25T20:26:40.347Z,-0.42
2023-01-25T20:29:08.203Z,-0.31
2023-01-25T20:31:44.836Z,-0.33
2023-01-25T20:34:18.847Z,-0.32
2023-01-25T20:36:47.217Z,0.02
2023-01-25T20:39:18.394Z,0.12
2023-01-25T20:41:47.189Z,0.18
2023-01-25T20:44:18.738Z,0.23
2023-01-25T20:46:46.181Z,0.20
2023-01-25T20:49:18.742Z,0.32
2023-01-25T20:51:46.965Z,0.26
2023-01-25T20:54:15.289Z,0.25
2023-01-25T20:56:43.219Z,0.29
2023-01-25T20:59:10.875Z,0.28
2023-01-25T21:01:40.714Z,0.32
2023-01-25T21:04:09.740Z,0.33
2023-01-25T21:06:38.587Z,0.33
2023-01-25T21:09:05.947Z,0.36
2023-01-25T21:11:33.493Z,0.37
2023-01-25T21:14:01.047Z,0.31
2023-01-25T21:16:28.419Z,0.16
2023-01-25T21:18:58.749Z,-0.07
2023-01-25T21:21:29.312Z,-0.02
2023-01-25T21:24:00.347Z,0.09
2023-01-25T21:26:32.340Z,0.18
2023-01-25T21:29:01.668Z,0.20
2023-01-25T21:31:33.008Z,0.19
2023-01-25T21:34:01.692Z,0.06
2023-01-25T21:36:31.582Z,0.14
2023-01-25T21:38:59.307Z,0.09
2023-01-25T21:41:30.393Z,-0.07
2023-01-25T21:44:18.817Z,-0.10
2023-01-25T21:47:12.326Z,0.05
2023-01-25T21:49:52.632Z,0.21
2023-01-25T21:52:19.919Z,0.03
2023-01-25T21:54:47.109Z,-0.27
2023-01-25T21:57:14.395Z,-0.13
2023-01-25T21:59:41.589Z,0.01
2023-01-25T22:02:14.079Z,0.08
2023-01-25T22:04:41.462Z,0.09
2023-01-25T22:07:09.719Z,-0.01
2023-01-25T22:09:36.995Z,-0.02
2023-01-25T22:12:04.596Z,0.18
2023-01-25T22:14:31.830Z,0.16
2023-01-25T22:16:59.019Z,-0.08
2023-01-25T22:19:28.797Z,-0.03
2023-01-25T22:21:55.949Z,-0.18
2023-01-25T22:24:23.355Z,-0.06
2023-01-25T22:27:08.633Z,0.16
2023-01-25T22:29:35.911Z,0.11
2023-01-25T22:32:03.172Z,0.17
2023-01-25T22:34:33.556Z,0.29
2023-01-25T22:37:00.951Z,0.06
2023-01-25T22:39:28.255Z,0.04
2023-01-25T22:41:56.615Z,0.07
2023-01-25T22:44:26.382Z,0.28
2023-01-25T22:46:53.906Z,0.34
2023-01-25T22:49:21.196Z,0.37
2023-01-25T22:51:48.490Z,0.31
2023-01-25T22:54:15.740Z,0.22
2023-01-25T22:56:43.108Z,0.26
2023-01-25T22:59:14.877Z,0.29
2023-01-25T23:01:42.132Z,0.31
2023-01-25T23:04:09.389Z,0.36
2023-01-25T23:06:37.521Z,0.38
2023-01-25T23:09:06.810Z,0.39
2023-01-25T23:11:38.573Z,0.34
2023-01-25T23:14:27.392Z,0.40
2023-01-25T23:17:14.696Z,0.37
2023-01-25T23:19:42.032Z,0.36
2023-01-25T23:22:09.275Z,0.43
2023-01-25T23:24:36.486Z,0.39
2023-01-25T23:27:03.715Z,0.42
2023-01-25T23:29:33.443Z,0.38
2023-01-25T23:32:00.817Z,0.38
2023-01-25T23:34:28.055Z,0.28
2023-01-25T23:36:55.283Z,0.21
2023-01-25T23:39:23.665Z,0.29
2023-01-25T23:41:52.473Z,0.39
2023-01-25T23:44:19.741Z,0.39
2023-01-25T23:46:46.991Z,0.38
2023-01-25T23:49:14.350Z,0.11
2023-01-25T23:51:41.644Z,0.08
2023-01-25T23:54:08.928Z,0.19
2023-01-25T23:56:36.158Z,0.31
2023-01-25T23:59:07.772Z,0.33
